sensor_id;sensor_type;location;lat;lon;timestamp;pressure;altitude;pressure_sealevel;temperature;humidity
61394;BME280;48555;50.952;-0.120;2023-01-31T00:01:37;102248.66;;;6.19;66.70
61394;BME280;48555;50.952;-0.120;2023-01-31T00:04:03;102243.38;;;6.20;66.97
61394;BME280;48555;50.952;-0.120;2023-01-31T00:06:31;102246.81;;;6.22;66.90
61394;BME280;48555;50.952;-0.120;2023-01-31T00:08:58;102248.41;;;6.26;67.27
61394;BME280;48555;50.952;-0.120;2023-01-31T00:11:26;102243.22;;;6.26;67.23
61394;BME280;48555;50.952;-0.120;2023-01-31T00:13:53;102233.69;;;6.27;67.59
61394;BME280;48555;50.952;-0.120;2023-01-31T00:16:19;102229.38;;;6.26;67.44
61394;BME280;48555;50.952;-0.120;2023-01-31T00:18:45;102230.19;;;6.28;67.73
61394;BME280;48555;50.952;-0.120;2023-01-31T00:21:16;102224.16;;;6.27;67.90
61394;BME280;48555;50.952;-0.120;2023-01-31T00:23:43;102220.66;;;6.28;67.99
61394;BME280;48555;50.952;-0.120;2023-01-31T00:26:18;102225.84;;;6.28;68.06
61394;BME280;48555;50.952;-0.120;2023-01-31T00:28:46;102224.94;;;6.29;68.00
61394;BME280;48555;50.952;-0.120;2023-01-31T00:31:12;102227.53;;;6.29;68.14
61394;BME280;48555;50.952;-0.120;2023-01-31T00:33:40;102227.50;;;6.31;68.23
61394;BME280;48555;50.952;-0.120;2023-01-31T00:36:07;102229.28;;;6.29;68.03
61394;BME280;48555;50.952;-0.120;2023-01-31T00:38:34;102236.28;;;6.27;68.19
61394;BME280;48555;50.952;-0.120;2023-01-31T00:41:00;102225.91;;;6.27;67.78
61394;BME280;48555;50.952;-0.120;2023-01-31T00:43:26;102215.53;;;6.25;67.83
61394;BME280;48555;50.952;-0.120;2023-01-31T00:45:51;102209.63;;;6.20;67.93
61394;BME280;48555;50.952;-0.120;2023-01-31T00:48:17;102200.03;;;6.22;67.95
61394;BME280;48555;50.952;-0.120;2023-01-31T00:50:42;102195.69;;;6.23;67.59
61394;BME280;48555;50.952;-0.120;2023-01-31T00:53:08;102188.09;;;6.17;67.58
61394;BME280;48555;50.952;-0.120;2023-01-31T00:55:33;102192.31;;;6.21;67.95
61394;BME280;48555;50.952;-0.120;2023-01-31T00:57:59;102181.88;;;6.22;67.80
61394;BME280;48555;50.952;-0.120;2023-01-31T01:00:24;102166.38;;;6.19;67.87
61394;BME280;48555;50.952;-0.120;2023-01-31T01:02:50;102156.75;;;6.23;67.63
61394;BME280;48555;50.952;-0.120;2023-01-31T01:05:15;102159.25;;;6.26;67.66
61394;BME280;48555;50.952;-0.120;2023-01-31T01:07:41;102158.25;;;6.30;67.71
61394;BME280;48555;50.952;-0.120;2023-01-31T01:10:06;102169.34;;;6.35;67.83
61394;BME280;48555;50.952;-0.120;2023-01-31T01:12:32;102172.00;;;6.33;68.01
61394;BME280;48555;50.952;-0.120;2023-01-31T01:14:57;102178.97;;;6.31;68.20
61394;BME280;48555;50.952;-0.120;2023-01-31T01:17:23;102176.44;;;6.30;68.38
61394;BME280;48555;50.952;-0.120;2023-01-31T01:19:48;102163.75;;;6.21;68.42
61394;BME280;48555;50.952;-0.120;2023-01-31T01:22:14;102175.66;;;6.26;68.72
61394;BME280;48555;50.952;-0.120;2023-01-31T01:24:44;102175.72;;;6.25;69.15
61394;BME280;48555;50.952;-0.120;2023-01-31T01:27:10;102191.34;;;6.23;69.05
61394;BME280;48555;50.952;-0.120;2023-01-31T01:29:36;102194.00;;;6.22;69.47
61394;BME280;48555;50.952;-0.120;2023-01-31T01:32:04;102187.25;;;6.16;69.61
61394;BME280;48555;50.952;-0.120;2023-01-31T01:34:29;102190.69;;;6.17;69.78
61394;BME280;48555;50.952;-0.120;2023-01-31T01:36:55;102189.75;;;6.19;69.88
61394;BME280;48555;50.952;-0.120;2023-01-31T01:39:22;102188.94;;;6.17;69.98
61394;BME280;48555;50.952;-0.120;2023-01-31T01:41:47;102179.41;;;6.18;70.22
61394;BME280;48555;50.952;-0.120;2023-01-31T01:44:47;102181.97;;;6.19;70.20
61394;BME280;48555;50.952;-0.120;2023-01-31T01:50:40;102176.78;;;6.18;70.27
61394;BME280;48555;50.952;-0.120;2023-01-31T01:53:08;102173.34;;;6.17;70.37
61394;BME280;48555;50.952;-0.120;2023-01-31T01:55:48;102174.13;;;6.21;70.46
61394;BME280;48555;50.952;-0.120;2023-01-31T01:58:38;102171.47;;;6.22;70.06
61394;BME280;48555;50.952;-0.120;2023-01-31T02:01:07;102176.47;;;6.28;70.39
61394;BME280;48555;50.952;-0.120;2023-01-31T02:03:34;102169.53;;;6.29;70.42
61394;BME280;48555;50.952;-0.120;2023-01-31T02:06:02;102176.28;;;6.34;70.34
61394;BME280;48555;50.952;-0.120;2023-01-31T02:08:31;102167.66;;;6.34;70.29
61394;BME280;48555;50.952;-0.120;2023-01-31T02:11:23;102170.44;;;6.28;70.40
61394;BME280;48555;50.952;-0.120;2023-01-31T02:13:49;102168.78;;;6.25;70.21
61394;BME280;48555;50.952;-0.120;2023-01-31T02:16:16;102169.78;;;6.21;70.42
61394;BME280;48555;50.952;-0.120;2023-01-31T02:18:43;102174.13;;;6.21;70.31
61394;BME280;48555;50.952;-0.120;2023-01-31T02:32:55;102170.84;;;6.14;70.70
61394;BME280;48555;50.952;-0.120;2023-01-31T02:35:37;102170.00;;;6.13;70.83
61394;BME280;48555;50.952;-0.120;2023-01-31T02:43:52;102162.19;;;6.15;71.16
61394;BME280;48555;50.952;-0.120;2023-01-31T02:46:55;102159.50;;;6.18;71.19
61394;BME280;48555;50.952;-0.120;2023-01-31T02:49:37;102158.59;;;6.19;70.91
61394;BME280;48555;50.952;-0.120;2023-01-31T02:57:52;102155.06;;;6.20;71.17
61394;BME280;48555;50.952;-0.120;2023-01-31T03:00:21;102157.66;;;6.22;71.23
61394;BME280;48555;50.952;-0.120;2023-01-31T03:02:47;102147.97;;;6.27;71.32
61394;BME280;48555;50.952;-0.120;2023-01-31T03:05:17;102149.59;;;6.29;71.15
61394;BME280;48555;50.952;-0.120;2023-01-31T03:07:46;102135.66;;;6.32;71.29
61394;BME280;48555;50.952;-0.120;2023-01-31T03:13:05;102136.47;;;6.34;71.19
61394;BME280;48555;50.952;-0.120;2023-01-31T03:21:36;102119.44;;;6.52;70.56
61394;BME280;48555;50.952;-0.120;2023-01-31T03:24:04;102110.69;;;6.54;70.83
61394;BME280;48555;50.952;-0.120;2023-01-31T03:26:30;102107.34;;;6.51;71.10
61394;BME280;48555;50.952;-0.120;2023-01-31T03:28:58;102121.84;;;6.58;71.17
61394;BME280;48555;50.952;-0.120;2023-01-31T03:31:29;102114.03;;;6.58;71.76
61394;BME280;48555;50.952;-0.120;2023-01-31T03:33:58;102124.41;;;6.59;71.82
61394;BME280;48555;50.952;-0.120;2023-01-31T03:36:32;102103.09;;;6.48;72.05
61394;BME280;48555;50.952;-0.120;2023-01-31T03:42:03;102130.03;;;6.72;71.97
61394;BME280;48555;50.952;-0.120;2023-01-31T03:47:15;102129.63;;;6.85;72.54
61394;BME280;48555;50.952;-0.120;2023-01-31T03:49:42;102127.72;;;6.90;72.66
61394;BME280;48555;50.952;-0.120;2023-01-31T03:52:08;102130.16;;;6.94;72.90
61394;BME280;48555;50.952;-0.120;2023-01-31T03:54:40;102128.31;;;6.98;73.24
61394;BME280;48555;50.952;-0.120;2023-01-31T03:57:19;102123.75;;;7.04;73.30
61394;BME280;48555;50.952;-0.120;2023-01-31T03:59:48;102115.56;;;7.15;73.60
61394;BME280;48555;50.952;-0.120;2023-01-31T04:02:20;102107.47;;;7.23;73.61
61394;BME280;48555;50.952;-0.120;2023-01-31T04:04:53;102102.81;;;7.33;73.67
61394;BME280;48555;50.952;-0.120;2023-01-31T04:07:20;102091.34;;;7.38;73.55
61394;BME280;48555;50.952;-0.120;2023-01-31T04:09:46;102090.22;;;7.44;73.63
61394;BME280;48555;50.952;-0.120;2023-01-31T04:12:13;102093.59;;;7.47;73.81
61394;BME280;48555;50.952;-0.120;2023-01-31T04:14:39;102090.03;;;7.50;73.64
61394;BME280;48555;50.952;-0.120;2023-01-31T04:17:04;102085.66;;;7.50;74.04
61394;BME280;48555;50.952;-0.120;2023-01-31T04:19:30;102089.69;;;7.59;73.68
61394;BME280;48555;50.952;-0.120;2023-01-31T04:21:55;102084.16;;;7.67;73.49
61394;BME280;48555;50.952;-0.120;2023-01-31T04:24:21;102072.56;;;7.76;73.50
61394;BME280;48555;50.952;-0.120;2023-01-31T04:26:47;102079.28;;;7.81;73.11
61394;BME280;48555;50.952;-0.120;2023-01-31T04:29:12;102076.50;;;7.86;72.92
61394;BME280;48555;50.952;-0.120;2023-01-31T04:31:38;102077.28;;;7.88;73.09
61394;BME280;48555;50.952;-0.120;2023-01-31T04:34:04;102076.19;;;7.93;73.07
61394;BME280;48555;50.952;-0.120;2023-01-31T04:36:29;102074.44;;;7.94;72.86
61394;BME280;48555;50.952;-0.120;2023-01-31T04:38:55;102076.06;;;7.96;73.24
61394;BME280;48555;50.952;-0.120;2023-01-31T04:41:20;102073.41;;;7.98;73.11
61394;BME280;48555;50.952;-0.120;2023-01-31T04:43:45;102064.69;;;7.99;73.15
61394;BME280;48555;50.952;-0.120;2023-01-31T04:46:11;102060.06;;;8.06;73.05
61394;BME280;48555;50.952;-0.120;2023-01-31T04:48:36;102059.84;;;8.12;73.16
61394;BME280;48555;50.952;-0.120;2023-01-31T04:51:03;102065.72;;;8.17;72.96
61394;BME280;48555;50.952;-0.120;2023-01-31T04:53:28;102074.31;;;8.19;72.96
61394;BME280;48555;50.952;-0.120;2023-01-31T04:55:54;102066.41;;;8.20;72.81
61394;BME280;48555;50.952;-0.120;2023-01-31T04:58:20;102085.09;;;8.32;72.48
61394;BME280;48555;50.952;-0.120;2023-01-31T05:00:45;102085.84;;;8.35;72.64
61394;BME280;48555;50.952;-0.120;2023-01-31T05:03:11;102084.19;;;8.33;72.57
61394;BME280;48555;50.952;-0.120;2023-01-31T05:05:36;102076.50;;;8.30;72.48
61394;BME280;48555;50.952;-0.120;2023-01-31T05:08:02;102084.97;;;8.35;72.40
61394;BME280;48555;50.952;-0.120;2023-01-31T05:10:28;102085.84;;;8.35;72.27
61394;BME280;48555;50.952;-0.120;2023-01-31T05:12:53;102082.22;;;8.38;72.26
61394;BME280;48555;50.952;-0.120;2023-01-31T05:15:18;102077.09;;;8.36;72.18
61394;BME280;48555;50.952;-0.120;2023-01-31T05:17:50;102080.44;;;8.40;72.29
61394;BME280;48555;50.952;-0.120;2023-01-31T05:20:17;102080.44;;;8.40;72.31
61394;BME280;48555;50.952;-0.120;2023-01-31T05:22:46;102074.47;;;8.36;72.37
61394;BME280;48555;50.952;-0.120;2023-01-31T05:25:11;102077.00;;;8.38;72.26
61394;BME280;48555;50.952;-0.120;2023-01-31T05:27:36;102075.31;;;8.38;72.19
61394;BME280;48555;50.952;-0.120;2023-01-31T05:30:02;102083.84;;;8.42;72.13
61394;BME280;48555;50.952;-0.120;2023-01-31T05:32:29;102068.97;;;8.44;72.34
61394;BME280;48555;50.952;-0.120;2023-01-31T05:34:55;102069.75;;;8.46;72.10
61394;BME280;48555;50.952;-0.120;2023-01-31T05:37:20;102074.97;;;8.46;72.02
61394;BME280;48555;50.952;-0.120;2023-01-31T05:39:45;102085.34;;;8.48;72.36
61394;BME280;48555;50.952;-0.120;2023-01-31T05:42:11;102083.50;;;8.50;72.13
61394;BME280;48555;50.952;-0.120;2023-01-31T05:44:36;102080.06;;;8.49;72.37
61394;BME280;48555;50.952;-0.120;2023-01-31T05:47:01;102089.47;;;8.53;72.10
61394;BME280;48555;50.952;-0.120;2023-01-31T05:49:27;102079.03;;;8.53;72.37
61394;BME280;48555;50.952;-0.120;2023-01-31T05:51:57;102071.22;;;8.53;72.17
61394;BME280;48555;50.952;-0.120;2023-01-31T05:54:22;102070.22;;;8.56;72.25
61394;BME280;48555;50.952;-0.120;2023-01-31T05:56:48;102074.53;;;8.57;72.02
61394;BME280;48555;50.952;-0.120;2023-01-31T05:59:13;102068.47;;;8.56;72.13
61394;BME280;48555;50.952;-0.120;2023-01-31T06:01:38;102071.13;;;8.55;72.11
61394;BME280;48555;50.952;-0.120;2023-01-31T06:04:04;102072.09;;;8.52;71.96
61394;BME280;48555;50.952;-0.120;2023-01-31T06:06:29;102077.41;;;8.51;71.99
61394;BME280;48555;50.952;-0.120;2023-01-31T06:08:55;102073.06;;;8.50;72.12
61394;BME280;48555;50.952;-0.120;2023-01-31T06:11:20;102061.63;;;8.54;71.97
61394;BME280;48555;50.952;-0.120;2023-01-31T06:13:45;102061.41;;;8.58;71.94
61394;BME280;48555;50.952;-0.120;2023-01-31T06:16:12;102051.72;;;8.62;71.71
61394;BME280;48555;50.952;-0.120;2023-01-31T06:18:38;102030.88;;;8.62;71.48
61394;BME280;48555;50.952;-0.120;2023-01-31T06:21:03;102035.22;;;8.61;71.78
61394;BME280;48555;50.952;-0.120;2023-01-31T06:23:29;102035.03;;;8.66;71.35
61394;BME280;48555;50.952;-0.120;2023-01-31T06:25:54;102040.13;;;8.69;71.73
61394;BME280;48555;50.952;-0.120;2023-01-31T06:28:21;102038.34;;;8.70;71.43
61394;BME280;48555;50.952;-0.120;2023-01-31T06:30:46;102043.00;;;8.63;71.94
61394;BME280;48555;50.952;-0.120;2023-01-31T06:33:12;102052.63;;;8.61;72.01
61394;BME280;48555;50.952;-0.120;2023-01-31T06:35:38;102056.06;;;8.61;71.79
61394;BME280;48555;50.952;-0.120;2023-01-31T06:38:04;102051.00;;;8.58;71.97
61394;BME280;48555;50.952;-0.120;2023-01-31T06:40:29;102053.03;;;8.52;72.26
61394;BME280;48555;50.952;-0.120;2023-01-31T06:42:56;102060.00;;;8.51;72.17
61394;BME280;48555;50.952;-0.120;2023-01-31T06:45:21;102060.00;;;8.51;72.47
61394;BME280;48555;50.952;-0.120;2023-01-31T06:47:46;102057.53;;;8.48;72.59
61394;BME280;48555;50.952;-0.120;2023-01-31T06:50:12;102068.88;;;8.47;72.38
61394;BME280;48555;50.952;-0.120;2023-01-31T06:52:40;102061.69;;;8.52;72.54
61394;BME280;48555;50.952;-0.120;2023-01-31T06:55:06;102060.72;;;8.55;72.51
61394;BME280;48555;50.952;-0.120;2023-01-31T06:57:32;102062.34;;;8.57;72.58
61394;BME280;48555;50.952;-0.120;2023-01-31T06:59:58;102056.28;;;8.57;72.77
61394;BME280;48555;50.952;-0.120;2023-01-31T07:02:23;102056.22;;;8.58;72.44
61394;BME280;48555;50.952;-0.120;2023-01-31T07:04:49;102053.56;;;8.60;72.29
61394;BME280;48555;50.952;-0.120;2023-01-31T07:07:15;102051.72;;;8.62;72.53
61394;BME280;48555;50.952;-0.120;2023-01-31T07:09:40;102051.72;;;8.62;72.64
61394;BME280;48555;50.952;-0.120;2023-01-31T07:12:06;102055.22;;;8.61;72.28
61394;BME280;48555;50.952;-0.120;2023-01-31T07:14:31;102042.28;;;8.59;72.28
61394;BME280;48555;50.952;-0.120;2023-01-31T07:16:56;102043.44;;;8.52;72.24
61394;BME280;48555;50.952;-0.120;2023-01-31T07:19:22;102039.19;;;8.50;72.41
61394;BME280;48555;50.952;-0.120;2023-01-31T07:21:47;102039.41;;;8.45;72.31
61394;BME280;48555;50.952;-0.120;2023-01-31T07:24:14;102043.09;;;8.39;72.64
61394;BME280;48555;50.952;-0.120;2023-01-31T07:26:39;102045.88;;;8.35;72.53
61394;BME280;48555;50.952;-0.120;2023-01-31T07:29:05;102046.78;;;8.34;72.59
61394;BME280;48555;50.952;-0.120;2023-01-31T07:31:30;102056.53;;;8.29;72.81
61394;BME280;48555;50.952;-0.120;2023-01-31T07:33:55;102022.63;;;8.08;72.94
61394;BME280;48555;50.952;-0.120;2023-01-31T07:36:21;102050.88;;;8.19;72.98
61394;BME280;48555;50.952;-0.120;2023-01-31T07:38:52;102041.50;;;8.15;73.16
61394;BME280;48555;50.952;-0.120;2023-01-31T07:41:17;102042.25;;;8.17;73.17
61394;BME280;48555;50.952;-0.120;2023-01-31T07:43:43;102043.22;;;8.14;73.34
61394;BME280;48555;50.952;-0.120;2023-01-31T07:46:08;102045.84;;;8.14;73.16
61394;BME280;48555;50.952;-0.120;2023-01-31T07:48:35;102037.03;;;8.17;73.22
61394;BME280;48555;50.952;-0.120;2023-01-31T07:51:01;102037.75;;;8.20;72.91
61394;BME280;48555;50.952;-0.120;2023-01-31T07:53:28;102035.81;;;8.26;73.08
61394;BME280;48555;50.952;-0.120;2023-01-31T07:55:54;102046.31;;;8.24;73.16
61394;BME280;48555;50.952;-0.120;2023-01-31T07:58:20;102050.69;;;8.24;73.26
61394;BME280;48555;50.952;-0.120;2023-01-31T08:00:45;102048.97;;;8.23;73.19
61394;BME280;48555;50.952;-0.120;2023-01-31T08:03:30;102050.56;;;8.27;73.51
61394;BME280;48555;50.952;-0.120;2023-01-31T08:06:00;102052.13;;;8.31;73.67
61394;BME280;48555;50.952;-0.120;2023-01-31T08:08:26;102054.47;;;8.38;73.69
61394;BME280;48555;50.952;-0.120;2023-01-31T08:10:51;102053.16;;;8.49;73.77
61394;BME280;48555;50.952;-0.120;2023-01-31T08:13:17;102050.16;;;8.58;73.49
61394;BME280;48555;50.952;-0.120;2023-01-31T08:15:42;102052.19;;;8.72;73.32
61394;BME280;48555;50.952;-0.120;2023-01-31T08:18:07;102047.50;;;8.80;73.36
61394;BME280;48555;50.952;-0.120;2023-01-31T08:20:33;102038.00;;;8.98;73.25
61394;BME280;48555;50.952;-0.120;2023-01-31T08:23:01;102027.88;;;9.29;73.33
61394;BME280;48555;50.952;-0.120;2023-01-31T08:25:26;102029.84;;;9.62;72.82
61394;BME280;48555;50.952;-0.120;2023-01-31T08:27:59;102015.47;;;9.90;72.56
61394;BME280;48555;50.952;-0.120;2023-01-31T08:30:25;102025.78;;;10.10;72.02
61394;BME280;48555;50.952;-0.120;2023-01-31T08:32:50;102025.19;;;10.22;71.51
61394;BME280;48555;50.952;-0.120;2023-01-31T08:35:16;102023.22;;;10.45;70.94
61394;BME280;48555;50.952;-0.120;2023-01-31T08:37:41;102028.34;;;10.64;70.95
61394;BME280;48555;50.952;-0.120;2023-01-31T08:40:07;102032.09;;;10.76;70.25
61394;BME280;48555;50.952;-0.120;2023-01-31T08:42:32;102032.22;;;10.90;69.81
61394;BME280;48555;50.952;-0.120;2023-01-31T08:44:58;102038.44;;;11.05;69.62
61394;BME280;48555;50.952;-0.120;2023-01-31T08:47:23;102031.84;;;11.13;69.19
61394;BME280;48555;50.952;-0.120;2023-01-31T08:49:49;102033.31;;;11.35;68.73
61394;BME280;48555;50.952;-0.120;2023-01-31T08:52:14;102032.91;;;11.43;68.35
61394;BME280;48555;50.952;-0.120;2023-01-31T08:54:39;102036.69;;;11.53;68.22
61394;BME280;48555;50.952;-0.120;2023-01-31T08:57:05;102031.38;;;11.54;68.06
61394;BME280;48555;50.952;-0.120;2023-01-31T08:59:30;102034.06;;;11.53;68.22
61394;BME280;48555;50.952;-0.120;2023-01-31T09:01:55;102036.63;;;11.39;68.17
61394;BME280;48555;50.952;-0.120;2023-01-31T09:04:21;102024.19;;;11.26;68.37
61394;BME280;48555;50.952;-0.120;2023-01-31T09:06:46;102030.25;;;11.11;68.58
61394;BME280;48555;50.952;-0.120;2023-01-31T09:09:11;102028.38;;;10.97;68.58
61394;BME280;48555;50.952;-0.120;2023-01-31T09:11:37;102016.78;;;10.85;68.69
61394;BME280;48555;50.952;-0.120;2023-01-31T09:14:03;102006.94;;;10.73;68.68
61394;BME280;48555;50.952;-0.120;2023-01-31T09:16:29;102006.56;;;10.63;69.04
61394;BME280;48555;50.952;-0.120;2023-01-31T09:18:54;101999.41;;;10.67;69.63
61394;BME280;48555;50.952;-0.120;2023-01-31T09:21:21;102002.47;;;10.75;70.26
61394;BME280;48555;50.952;-0.120;2023-01-31T09:23:52;101995.25;;;10.80;70.79
61394;BME280;48555;50.952;-0.120;2023-01-31T09:26:18;101990.84;;;10.81;70.88
61394;BME280;48555;50.952;-0.120;2023-01-31T09:28:43;102012.56;;;10.83;71.16
61394;BME280;48555;50.952;-0.120;2023-01-31T09:31:11;102003.25;;;10.77;71.25
61394;BME280;48555;50.952;-0.120;2023-01-31T09:33:37;102007.81;;;10.74;71.26
61394;BME280;48555;50.952;-0.120;2023-01-31T09:36:06;102010.56;;;10.71;71.30
61394;BME280;48555;50.952;-0.120;2023-01-31T09:38:32;102009.72;;;10.70;71.53
61394;BME280;48555;50.952;-0.120;2023-01-31T09:41:02;102015.88;;;10.69;72.00
61394;BME280;48555;50.952;-0.120;2023-01-31T09:43:32;102014.34;;;10.65;72.15
61394;BME280;48555;50.952;-0.120;2023-01-31T09:46:01;102012.81;;;10.61;72.50
61394;BME280;48555;50.952;-0.120;2023-01-31T09:48:30;102006.13;;;10.55;72.83
61394;BME280;48555;50.952;-0.120;2023-01-31T09:50:59;102008.66;;;10.57;72.92
61394;BME280;48555;50.952;-0.120;2023-01-31T09:53:30;101996.34;;;10.59;73.11
61394;BME280;48555;50.952;-0.120;2023-01-31T10:06:22;102001.56;;;10.59;74.56
61394;BME280;48555;50.952;-0.120;2023-01-31T10:08:59;101993.72;;;10.59;74.51
61394;BME280;48555;50.952;-0.120;2023-01-31T10:11:44;101984.56;;;10.67;74.40
61394;BME280;48555;50.952;-0.120;2023-01-31T10:14:32;101988.72;;;10.72;74.66
61394;BME280;48555;50.952;-0.120;2023-01-31T10:17:26;101996.31;;;10.76;75.26
61394;BME280;48555;50.952;-0.120;2023-01-31T10:20:02;101995.97;;;10.82;75.26
61394;BME280;48555;50.952;-0.120;2023-01-31T10:22:45;101999.81;;;10.93;75.20
61394;BME280;48555;50.952;-0.120;2023-01-31T10:25:33;102003.78;;;11.00;75.18
61394;BME280;48555;50.952;-0.120;2023-01-31T10:28:13;102006.25;;;11.03;74.95
61394;BME280;48555;50.952;-0.120;2023-01-31T10:31:01;102013.94;;;11.06;74.93
61394;BME280;48555;50.952;-0.120;2023-01-31T10:36:50;102016.41;;;11.09;75.44
61394;BME280;48555;50.952;-0.120;2023-01-31T10:39:28;102022.22;;;11.14;75.50
61394;BME280;48555;50.952;-0.120;2023-01-31T10:44:49;102016.66;;;11.20;75.44
61394;BME280;48555;50.952;-0.120;2023-01-31T10:47:17;102021.72;;;11.23;75.36
61394;BME280;48555;50.952;-0.120;2023-01-31T10:49:45;102015.41;;;11.27;75.29
61394;BME280;48555;50.952;-0.120;2023-01-31T10:55:14;102030.03;;;11.31;75.33
61394;BME280;48555;50.952;-0.120;2023-01-31T10:57:46;102024.00;;;11.29;75.60
61394;BME280;48555;50.952;-0.120;2023-01-31T11:00:18;102035.03;;;11.36;75.52
61394;BME280;48555;50.952;-0.120;2023-01-31T11:02:44;102038.31;;;11.40;75.71
61394;BME280;48555;50.952;-0.120;2023-01-31T11:05:15;102025.56;;;11.33;75.67
61394;BME280;48555;50.952;-0.120;2023-01-31T11:07:42;102036.19;;;11.30;76.21
61394;BME280;48555;50.952;-0.120;2023-01-31T11:10:22;102028.94;;;11.35;76.03
61394;BME280;48555;50.952;-0.120;2023-01-31T11:15:24;102022.25;;;11.46;75.83
61394;BME280;48555;50.952;-0.120;2023-01-31T11:17:52;102028.84;;;11.53;75.83
61394;BME280;48555;50.952;-0.120;2023-01-31T11:20:23;102016.16;;;11.61;76.05
61394;BME280;48555;50.952;-0.120;2023-01-31T11:22:52;102002.66;;;11.69;76.06
61394;BME280;48555;50.952;-0.120;2023-01-31T11:25:22;102007.78;;;11.70;76.12
61394;BME280;48555;50.952;-0.120;2023-01-31T11:27:51;102009.31;;;11.74;76.05
61394;BME280;48555;50.952;-0.120;2023-01-31T11:30:27;102001.00;;;11.82;76.04
61394;BME280;48555;50.952;-0.120;2023-01-31T11:32:53;101995.38;;;11.90;75.67
61394;BME280;48555;50.952;-0.120;2023-01-31T11:42:59;101981.78;;;12.13;75.50
61394;BME280;48555;50.952;-0.120;2023-01-31T11:45:32;101985.72;;;12.20;75.67
61394;BME280;48555;50.952;-0.120;2023-01-31T11:48:06;101973.38;;;12.22;75.44
61394;BME280;48555;50.952;-0.120;2023-01-31T11:50:37;101979.47;;;12.23;75.33
61394;BME280;48555;50.952;-0.120;2023-01-31T11:53:14;101973.47;;;12.21;75.38
61394;BME280;48555;50.952;-0.120;2023-01-31T11:55:41;101966.28;;;12.24;75.26
61394;BME280;48555;50.952;-0.120;2023-01-31T11:58:31;101968.13;;;12.22;75.34
61394;BME280;48555;50.952;-0.120;2023-01-31T12:01:04;101967.09;;;12.25;75.11
61394;BME280;48555;50.952;-0.120;2023-01-31T12:03:31;101970.31;;;12.30;75.02
61394;BME280;48555;50.952;-0.120;2023-01-31T12:06:08;101951.66;;;12.35;74.97
61394;BME280;48555;50.952;-0.120;2023-01-31T12:13:53;101948.88;;;12.52;74.77
61394;BME280;48555;50.952;-0.120;2023-01-31T12:16:26;101931.06;;;12.57;74.63
61394;BME280;48555;50.952;-0.120;2023-01-31T12:26:55;101925.63;;;12.60;74.99
61394;BME280;48555;50.952;-0.120;2023-01-31T12:29:41;101920.56;;;12.57;75.32
61394;BME280;48555;50.952;-0.120;2023-01-31T12:43:13;101926.56;;;12.73;75.93
61394;BME280;48555;50.952;-0.120;2023-01-31T12:48:16;101924.13;;;12.70;75.81
61394;BME280;48555;50.952;-0.120;2023-01-31T12:51:31;101925.81;;;12.71;75.98
61394;BME280;48555;50.952;-0.120;2023-01-31T13:02:19;101883.44;;;12.78;76.09
61394;BME280;48555;50.952;-0.120;2023-01-31T13:04:51;101892.06;;;12.80;75.55
61394;BME280;48555;50.952;-0.120;2023-01-31T13:07:31;101885.13;;;12.79;75.57
61394;BME280;48555;50.952;-0.120;2023-01-31T13:10:02;101875.66;;;12.76;75.70
61394;BME280;48555;50.952;-0.120;2023-01-31T13:12:31;101871.16;;;12.78;75.65
61394;BME280;48555;50.952;-0.120;2023-01-31T13:15:22;101869.69;;;12.74;75.66
61394;BME280;48555;50.952;-0.120;2023-01-31T13:17:55;101864.50;;;12.72;75.66
61394;BME280;48555;50.952;-0.120;2023-01-31T13:23:09;101871.53;;;12.72;75.81
61394;BME280;48555;50.952;-0.120;2023-01-31T13:25:39;101875.00;;;12.72;75.56
61394;BME280;48555;50.952;-0.120;2023-01-31T13:28:17;101869.56;;;12.76;75.87
61394;BME280;48555;50.952;-0.120;2023-01-31T13:31:08;101866.84;;;12.77;76.26
61394;BME280;48555;50.952;-0.120;2023-01-31T13:33:43;101875.38;;;12.81;75.78
61394;BME280;48555;50.952;-0.120;2023-01-31T13:36:26;101879.66;;;12.82;76.18
61394;BME280;48555;50.952;-0.120;2023-01-31T13:38:53;101883.91;;;12.84;75.91
61394;BME280;48555;50.952;-0.120;2023-01-31T13:41:30;101884.53;;;12.88;75.75
61394;BME280;48555;50.952;-0.120;2023-01-31T13:43:57;101888.75;;;12.90;75.68
61394;BME280;48555;50.952;-0.120;2023-01-31T13:46:31;101889.59;;;12.91;75.68
61394;BME280;48555;50.952;-0.120;2023-01-31T13:49:01;101882.47;;;12.93;75.30
61394;BME280;48555;50.952;-0.120;2023-01-31T13:51:38;101889.31;;;12.95;75.14
61394;BME280;48555;50.952;-0.120;2023-01-31T13:54:19;101877.22;;;12.93;75.21
61394;BME280;48555;50.952;-0.120;2023-01-31T13:56:53;101887.31;;;12.99;75.14
61394;BME280;48555;50.952;-0.120;2023-01-31T13:59:31;101880.00;;;13.04;75.12
61394;BME280;48555;50.952;-0.120;2023-01-31T14:01:59;101890.22;;;13.09;75.15
61394;BME280;48555;50.952;-0.120;2023-01-31T14:04:31;101879.34;;;13.15;74.86
61394;BME280;48555;50.952;-0.120;2023-01-31T14:09:36;101871.53;;;13.28;74.67
61394;BME280;48555;50.952;-0.120;2023-01-31T14:17:04;101871.47;;;13.42;72.99
61394;BME280;48555;50.952;-0.120;2023-01-31T14:22:18;101879.69;;;13.50;72.26
61394;BME280;48555;50.952;-0.120;2023-01-31T14:27:22;101874.03;;;13.56;71.52
61394;BME280;48555;50.952;-0.120;2023-01-31T14:38:45;101844.09;;;13.72;69.08
61394;BME280;48555;50.952;-0.120;2023-01-31T14:44:11;101846.72;;;13.72;68.06
61394;BME280;48555;50.952;-0.120;2023-01-31T14:47:18;101845.97;;;13.70;66.75
61394;BME280;48555;50.952;-0.120;2023-01-31T14:49:58;101839.03;;;13.69;65.55
61394;BME280;48555;50.952;-0.120;2023-01-31T14:52:43;101841.56;;;13.70;64.85
61394;BME280;48555;50.952;-0.120;2023-01-31T14:55:23;101852.47;;;13.64;64.36
61394;BME280;48555;50.952;-0.120;2023-01-31T14:57:54;101861.94;;;13.54;63.30
61394;BME280;48555;50.952;-0.120;2023-01-31T15:03:00;101864.50;;;13.41;62.71
61394;BME280;48555;50.952;-0.120;2023-01-31T15:10:58;101872.50;;;13.39;62.63
61394;BME280;48555;50.952;-0.120;2023-01-31T15:18:52;101873.06;;;13.45;62.93
61394;BME280;48555;50.952;-0.120;2023-01-31T15:21:23;101874.63;;;13.47;62.44
61394;BME280;48555;50.952;-0.120;2023-01-31T15:23:51;101881.78;;;13.45;62.28